sensor_id;sensor_type;location;lat;lon;timestamp;pressure;altitude;pressure_sealevel;temperature;humidity
33422;BME280;19763;55.798;37.782;2022-08-01T00:01:53;99868.63;;;19.43;57.31
33422;BME280;19763;55.798;37.782;2022-08-01T00:04:19;99851.53;;;19.36;57.38
33422;BME280;19763;55.798;37.782;2022-08-01T00:06:44;99872.28;;;19.41;58.24
33422;BME280;19763;55.798;37.782;2022-08-01T00:09:10;99868.06;;;19.38;57.66
33422;BME280;19763;55.798;37.782;2022-08-01T00:11:36;99866.34;;;19.37;57.98
33422;BME280;19763;55.798;37.782;2022-08-01T00:14:01;99863.13;;;19.32;57.84
33422;BME280;19763;55.798;37.782;2022-08-01T00:16:27;99865.75;;;19.32;57.83
33422;BME280;19763;55.798;37.782;2022-08-01T00:18:53;99858.22;;;19.26;58.10
33422;BME280;19763;55.798;37.782;2022-08-01T00:21:19;99858.31;;;19.24;57.69
33422;BME280;19763;55.798;37.782;2022-08-01T00:23:45;99860.00;;;19.25;57.48
33422;BME280;19763;55.798;37.782;2022-08-01T00:26:12;99858.03;;;19.29;57.76
33422;BME280;19763;55.798;37.782;2022-08-01T00:28:38;99852.78;;;19.29;58.46
33422;BME280;19763;55.798;37.782;2022-08-01T00:31:03;99853.81;;;19.26;58.57
33422;BME280;19763;55.798;37.782;2022-08-01T00:33:29;99853.22;;;19.21;57.87
33422;BME280;19763;55.798;37.782;2022-08-01T00:35:55;99856.16;;;19.15;57.44
33422;BME280;19763;55.798;37.782;2022-08-01T00:38:21;99841.00;;;19.04;57.55
33422;BME280;19763;55.798;37.782;2022-08-01T00:40:47;99858.78;;;19.15;58.11
33422;BME280;19763;55.798;37.782;2022-08-01T00:43:12;99855.50;;;19.11;58.08
33422;BME280;19763;55.798;37.782;2022-08-01T00:45:38;99850.56;;;19.05;58.14
33422;BME280;19763;55.798;37.782;2022-08-01T00:48:03;99856.50;;;19.09;58.15
33422;BME280;19763;55.798;37.782;2022-08-01T00:50:29;99850.56;;;19.05;58.31
33422;BME280;19763;55.798;37.782;2022-08-01T00:52:55;99849.06;;;19.01;58.93
33422;BME280;19763;55.798;37.782;2022-08-01T00:55:23;99853.44;;;19.01;59.75
33422;BME280;19763;55.798;37.782;2022-08-01T00:57:49;99838.34;;;18.88;59.94
33422;BME280;19763;55.798;37.782;2022-08-01T01:00:15;99853.88;;;18.93;60.62
33422;BME280;19763;55.798;37.782;2022-08-01T01:02:40;99847.22;;;18.86;59.38
33422;BME280;19763;55.798;37.782;2022-08-01T01:05:07;99844.75;;;18.83;59.50
33422;BME280;19763;55.798;37.782;2022-08-01T01:08:08;99845.94;;;18.77;59.26
33422;BME280;19763;55.798;37.782;2022-08-01T01:10:46;99808.09;;;18.48;59.69
33422;BME280;19763;55.798;37.782;2022-08-01T01:13:22;99806.25;;;18.50;59.35
33422;BME280;19763;55.798;37.782;2022-08-01T01:15:58;99858.84;;;18.64;59.30
33422;BME280;19763;55.798;37.782;2022-08-01T01:18:31;99823.69;;;18.51;60.30
33422;BME280;19763;55.798;37.782;2022-08-01T01:21:07;99845.13;;;18.59;60.40
33422;BME280;19763;55.798;37.782;2022-08-01T01:24:13;99850.19;;;18.62;60.72
33422;BME280;19763;55.798;37.782;2022-08-01T01:26:54;99795.25;;;18.25;60.77
33422;BME280;19763;55.798;37.782;2022-08-01T01:29:30;99794.41;;;18.25;60.24
33422;BME280;19763;55.798;37.782;2022-08-01T01:34:22;99851.78;;;18.49;60.81
33422;BME280;19763;55.798;37.782;2022-08-01T01:36:52;99840.75;;;18.42;61.56
33422;BME280;19763;55.798;37.782;2022-08-01T01:39:20;99801.91;;;18.15;60.75
33422;BME280;19763;55.798;37.782;2022-08-01T01:41:48;99826.41;;;18.32;61.71
33422;BME280;19763;55.798;37.782;2022-08-01T01:44:15;99834.03;;;18.36;61.72
33422;BME280;19763;55.798;37.782;2022-08-01T01:46:42;99828.50;;;18.25;60.54
33422;BME280;19763;55.798;37.782;2022-08-01T01:49:08;99838.16;;;18.24;60.62
33422;BME280;19763;55.798;37.782;2022-08-01T01:51:37;99839.81;;;18.25;60.88
33422;BME280;19763;55.798;37.782;2022-08-01T01:54:04;99840.78;;;18.24;61.76
33422;BME280;19763;55.798;37.782;2022-08-01T01:56:30;99841.75;;;18.22;61.80
33422;BME280;19763;55.798;37.782;2022-08-01T01:58:59;99798.75;;;17.91;60.87
33422;BME280;19763;55.798;37.782;2022-08-01T02:01:28;99802.25;;;17.90;61.30
33422;BME280;19763;55.798;37.782;2022-08-01T02:03:56;99842.13;;;18.14;62.20
33422;BME280;19763;55.798;37.782;2022-08-01T02:06:23;99801.41;;;17.89;62.21
33422;BME280;19763;55.798;37.782;2022-08-01T02:08:50;99833.59;;;18.10;61.64
33422;BME280;19763;55.798;37.782;2022-08-01T02:11:19;99850.72;;;18.18;61.70
33422;BME280;19763;55.798;37.782;2022-08-01T02:14:06;99800.56;;;17.89;62.77
33422;BME280;19763;55.798;37.782;2022-08-01T02:16:35;99795.63;;;17.83;62.37
33422;BME280;19763;55.798;37.782;2022-08-01T02:19:03;99845.69;;;18.13;62.47
33422;BME280;19763;55.798;37.782;2022-08-01T02:21:39;99857.03;;;18.14;63.43
33422;BME280;19763;55.798;37.782;2022-08-01T02:26:52;99835.81;;;18.01;63.37
33422;BME280;19763;55.798;37.782;2022-08-01T02:29:27;99813.47;;;17.93;63.38
33422;BME280;19763;55.798;37.782;2022-08-01T02:31:54;99839.06;;;18.06;63.97
33422;BME280;19763;55.798;37.782;2022-08-01T02:34:21;99838.53;;;17.99;63.62
33422;BME280;19763;55.798;37.782;2022-08-01T02:36:48;99840.81;;;18.05;63.65
33422;BME280;19763;55.798;37.782;2022-08-01T02:39:16;99792.69;;;17.71;64.00
33422;BME280;19763;55.798;37.782;2022-08-01T02:41:47;99798.72;;;17.73;62.43
33422;BME280;19763;55.798;37.782;2022-08-01T02:44:23;99795.69;;;17.64;62.20
33422;BME280;19763;55.798;37.782;2022-08-01T02:46:52;99817.44;;;17.83;64.25
33422;BME280;19763;55.798;37.782;2022-08-01T02:49:21;99853.56;;;18.13;62.04
33422;BME280;19763;55.798;37.782;2022-08-01T02:51:49;99840.97;;;18.20;63.80
33422;BME280;19763;55.798;37.782;2022-08-01T02:54:18;99860.34;;;18.17;60.95
33422;BME280;19763;55.798;37.782;2022-08-01T02:56:47;99837.38;;;18.05;59.95
33422;BME280;19763;55.798;37.782;2022-08-01T02:59:16;99842.38;;;18.09;61.24
33422;BME280;19763;55.798;37.782;2022-08-01T03:01:44;99851.03;;;18.11;60.52
33422;BME280;19763;55.798;37.782;2022-08-01T03:04:11;99849.63;;;18.22;60.54
33422;BME280;19763;55.798;37.782;2022-08-01T03:06:38;99855.47;;;18.27;60.16
33422;BME280;19763;55.798;37.782;2022-08-01T03:09:06;99851.47;;;18.37;60.83
33422;BME280;19763;55.798;37.782;2022-08-01T03:11:34;99801.22;;;18.11;60.83
33422;BME280;19763;55.798;37.782;2022-08-01T03:14:04;99850.91;;;18.48;60.48
33422;BME280;19763;55.798;37.782;2022-08-01T03:16:33;99851.78;;;18.49;61.47
33422;BME280;19763;55.798;37.782;2022-08-01T03:19:01;99855.22;;;18.49;61.48
33422;BME280;19763;55.798;37.782;2022-08-01T03:21:28;99856.63;;;18.56;61.05
33422;BME280;19763;55.798;37.782;2022-08-01T03:23:57;99820.72;;;18.23;59.54
33422;BME280;19763;55.798;37.782;2022-08-01T03:26:28;99820.59;;;18.42;59.51
33422;BME280;19763;55.798;37.782;2022-08-01T03:29:04;99823.75;;;18.49;59.56
33422;BME280;19763;55.798;37.782;2022-08-01T03:31:36;99825.22;;;18.55;59.38
33422;BME280;19763;55.798;37.782;2022-08-01T03:34:03;99851.47;;;18.88;60.20
33422;BME280;19763;55.798;37.782;2022-08-01T03:36:31;99800.84;;;18.53;60.43
33422;BME280;19763;55.798;37.782;2022-08-01T03:39:01;99804.09;;;18.74;59.72
33422;BME280;19763;55.798;37.782;2022-08-01T03:41:35;99853.09;;;19.07;59.30
33422;BME280;19763;55.798;37.782;2022-08-01T03:44:14;99859.81;;;19.12;61.09
33422;BME280;19763;55.798;37.782;2022-08-01T03:46:47;99856.09;;;19.17;59.10
33422;BME280;19763;55.798;37.782;2022-08-01T03:49:25;99814.94;;;19.01;60.23
33422;BME280;19763;55.798;37.782;2022-08-01T03:51:52;99839.75;;;19.11;60.33
33422;BME280;19763;55.798;37.782;2022-08-01T03:54:23;99800.19;;;18.99;58.42
33422;BME280;19763;55.798;37.782;2022-08-01T03:56:50;99806.53;;;19.10;58.10
33422;BME280;19763;55.798;37.782;2022-08-01T03:59:18;99801.53;;;19.22;58.72
33422;BME280;19763;55.798;37.782;2022-08-01T04:01:45;99847.03;;;19.54;57.99
33422;BME280;19763;55.798;37.782;2022-08-01T04:04:12;99836.00;;;19.63;57.49
33422;BME280;19763;55.798;37.782;2022-08-01T04:06:38;99839.72;;;19.75;58.28
33422;BME280;19763;55.798;37.782;2022-08-01T04:09:04;99837.41;;;19.85;58.37
33422;BME280;19763;55.798;37.782;2022-08-01T04:11:30;99835.66;;;19.86;57.64
33422;BME280;19763;55.798;37.782;2022-08-01T04:13:56;99835.19;;;19.93;58.00
33422;BME280;19763;55.798;37.782;2022-08-01T04:16:22;99837.91;;;19.92;57.90
33422;BME280;19763;55.798;37.782;2022-08-01T04:18:48;99838.69;;;19.94;57.30
33422;BME280;19763;55.798;37.782;2022-08-01T04:21:16;99841.88;;;19.99;57.79
33422;BME280;19763;55.798;37.782;2022-08-01T04:23:43;99840.59;;;20.06;58.31
33422;BME280;19763;55.798;37.782;2022-08-01T04:26:12;99793.94;;;19.79;58.36
33422;BME280;19763;55.798;37.782;2022-08-01T04:28:40;99836.66;;;20.13;57.01
33422;BME280;19763;55.798;37.782;2022-08-01T04:31:08;99849.91;;;20.12;56.72
33422;BME280;19763;55.798;37.782;2022-08-01T04:33:43;99851.03;;;20.22;57.71
33422;BME280;19763;55.798;37.782;2022-08-01T04:36:12;99793.63;;;20.00;56.89
33422;BME280;19763;55.798;37.782;2022-08-01T04:38:42;99848.81;;;20.30;56.27
33422;BME280;19763;55.798;37.782;2022-08-01T04:41:12;99805.78;;;20.17;56.56
33422;BME280;19763;55.798;37.782;2022-08-01T04:43:38;99844.78;;;20.39;56.69
33422;BME280;19763;55.798;37.782;2022-08-01T04:46:08;99845.75;;;20.38;55.10
33422;BME280;19763;55.798;37.782;2022-08-01T04:48:38;99801.16;;;20.21;54.56
33422;BME280;19763;55.798;37.782;2022-08-01T04:51:06;99842.75;;;20.59;55.10
33422;BME280;19763;55.798;37.782;2022-08-01T04:53:36;99842.38;;;20.65;54.56
33422;BME280;19763;55.798;37.782;2022-08-01T04:56:02;99844.38;;;20.76;54.73
33422;BME280;19763;55.798;37.782;2022-08-01T04:58:27;99843.34;;;20.78;53.63
33422;BME280;19763;55.798;37.782;2022-08-01T05:00:53;99838.47;;;20.86;53.59
33422;BME280;19763;55.798;37.782;2022-08-01T05:03:19;99849.09;;;20.85;53.40
33422;BME280;19763;55.798;37.782;2022-08-01T05:05:44;99848.22;;;20.99;53.60
33422;BME280;19763;55.798;37.782;2022-08-01T05:08:10;99849.53;;;21.06;53.36
33422;BME280;19763;55.798;37.782;2022-08-01T05:10:36;99845.19;;;21.19;52.91
33422;BME280;19763;55.798;37.782;2022-08-01T05:13:01;99845.63;;;21.41;52.20
33422;BME280;19763;55.798;37.782;2022-08-01T05:15:27;99852.22;;;21.75;52.12
33422;BME280;19763;55.798;37.782;2022-08-01T05:17:53;99850.78;;;21.84;51.77
33422;BME280;19763;55.798;37.782;2022-08-01T05:20:19;99854.69;;;21.91;52.29
33422;BME280;19763;55.798;37.782;2022-08-01T05:22:44;99849.50;;;22.30;51.82
33422;BME280;19763;55.798;37.782;2022-08-01T05:25:10;99845.19;;;22.54;49.89
33422;BME280;19763;55.798;37.782;2022-08-01T05:27:36;99848.44;;;22.97;50.11
33422;BME280;19763;55.798;37.782;2022-08-01T05:30:08;99849.69;;;23.04;48.96
33422;BME280;19763;55.798;37.782;2022-08-01T05:32:34;99850.56;;;22.91;49.21
33422;BME280;19763;55.798;37.782;2022-08-01T05:35:00;99852.03;;;22.96;50.67
33422;BME280;19763;55.798;37.782;2022-08-01T05:39:51;99853.84;;;22.82;50.54
33422;BME280;19763;55.798;37.782;2022-08-01T05:42:16;99836.19;;;22.83;49.46
33422;BME280;19763;55.798;37.782;2022-08-01T05:44:42;99845.72;;;22.72;48.40
33422;BME280;19763;55.798;37.782;2022-08-01T05:47:07;99838.63;;;22.73;48.00
33422;BME280;19763;55.798;37.782;2022-08-01T05:49:33;99842.53;;;22.80;47.13
33422;BME280;19763;55.798;37.782;2022-08-01T05:51:59;99845.28;;;22.79;46.77
33422;BME280;19763;55.798;37.782;2022-08-01T05:54:27;99845.50;;;22.88;47.52
33422;BME280;19763;55.798;37.782;2022-08-01T05:56:53;99838.31;;;22.90;46.35
33422;BME280;19763;55.798;37.782;2022-08-01T05:59:20;99841.78;;;22.91;46.44
33422;BME280;19763;55.798;37.782;2022-08-01T06:01:45;99836.66;;;22.64;46.15
33422;BME280;19763;55.798;37.782;2022-08-01T06:04:11;99845.19;;;22.80;46.71
33422;BME280;19763;55.798;37.782;2022-08-01T06:06:37;99829.94;;;22.97;47.05
33422;BME280;19763;55.798;37.782;2022-08-01T06:09:03;99837.44;;;23.03;47.53
33422;BME280;19763;55.798;37.782;2022-08-01T06:11:28;99840.41;;;23.11;47.96
33422;BME280;19763;55.798;37.782;2022-08-01T06:13:54;99829.31;;;23.06;46.60
33422;BME280;19763;55.798;37.782;2022-08-01T06:16:20;99843.69;;;23.15;46.62
33422;BME280;19763;55.798;37.782;2022-08-01T06:18:45;99838.41;;;23.02;46.10
33422;BME280;19763;55.798;37.782;2022-08-01T06:21:11;99837.13;;;23.20;46.84
33422;BME280;19763;55.798;37.782;2022-08-01T06:23:37;99847.47;;;23.23;44.61
33422;BME280;19763;55.798;37.782;2022-08-01T06:26:02;99847.00;;;23.30;45.53
33422;BME280;19763;55.798;37.782;2022-08-01T06:28:28;99849.34;;;23.21;44.76
33422;BME280;19763;55.798;37.782;2022-08-01T06:30:54;99852.06;;;23.33;44.73
33422;BME280;19763;55.798;37.782;2022-08-01T06:33:20;99851.84;;;23.36;45.00
33422;BME280;19763;55.798;37.782;2022-08-01T06:35:46;99848.00;;;23.16;43.79
33422;BME280;19763;55.798;37.782;2022-08-01T06:38:11;99855.72;;;23.19;44.06
33422;BME280;19763;55.798;37.782;2022-08-01T06:40:37;99853.78;;;23.34;45.03
33422;BME280;19763;55.798;37.782;2022-08-01T06:43:03;99853.25;;;23.29;43.63
33422;BME280;19763;55.798;37.782;2022-08-01T06:45:29;99857.06;;;23.37;44.37
33422;BME280;19763;55.798;37.782;2022-08-01T06:47:55;99849.13;;;23.37;44.15
33422;BME280;19763;55.798;37.782;2022-08-01T06:50:20;99847.09;;;23.41;43.83
33422;BME280;19763;55.798;37.782;2022-08-01T06:52:46;99836.63;;;23.39;44.87
33422;BME280;19763;55.798;37.782;2022-08-01T06:55:11;99847.16;;;23.52;45.98
33422;BME280;19763;55.798;37.782;2022-08-01T06:57:51;99837.97;;;23.45;46.56
33422;BME280;19763;55.798;37.782;2022-08-01T07:00:21;99850.97;;;23.48;45.52
33422;BME280;19763;55.798;37.782;2022-08-01T07:02:53;99865.94;;;23.60;44.61
33422;BME280;19763;55.798;37.782;2022-08-01T07:05:19;99855.53;;;23.70;45.28
33422;BME280;19763;55.798;37.782;2022-08-01T07:07:45;99861.59;;;23.84;44.46
33422;BME280;19763;55.798;37.782;2022-08-01T07:10:10;99858.53;;;23.90;45.14
33422;BME280;19763;55.798;37.782;2022-08-01T07:12:36;99840.50;;;23.95;45.16
33422;BME280;19763;55.798;37.782;2022-08-01T07:15:10;99855.34;;;24.09;46.84
33422;BME280;19763;55.798;37.782;2022-08-01T07:17:40;99862.13;;;24.13;44.94
33422;BME280;19763;55.798;37.782;2022-08-01T07:20:11;99856.06;;;24.11;43.10
33422;BME280;19763;55.798;37.782;2022-08-01T07:22:38;99862.19;;;24.00;42.50
33422;BME280;19763;55.798;37.782;2022-08-01T07:25:05;99853.16;;;23.91;42.27
33422;BME280;19763;55.798;37.782;2022-08-01T07:27:30;99865.00;;;23.86;43.36
33422;BME280;19763;55.798;37.782;2022-08-01T07:29:56;99850.41;;;23.80;42.67
33422;BME280;19763;55.798;37.782;2022-08-01T07:32:22;99853.63;;;23.97;43.85
33422;BME280;19763;55.798;37.782;2022-08-01T07:34:47;99850.41;;;24.04;42.77
33422;BME280;19763;55.798;37.782;2022-08-01T07:37:13;99855.09;;;24.01;43.01
33422;BME280;19763;55.798;37.782;2022-08-01T07:39:39;99845.63;;;24.21;42.84
33422;BME280;19763;55.798;37.782;2022-08-01T07:42:04;99846.47;;;24.21;41.57
33422;BME280;19763;55.798;37.782;2022-08-01T07:44:30;99841.69;;;24.38;43.35
33422;BME280;19763;55.798;37.782;2022-08-01T07:46:56;99840.59;;;24.29;43.24
33422;BME280;19763;55.798;37.782;2022-08-01T07:49:21;99840.72;;;24.27;42.84
33422;BME280;19763;55.798;37.782;2022-08-01T07:51:47;99840.22;;;24.22;41.81
33422;BME280;19763;55.798;37.782;2022-08-01T07:54:13;99841.59;;;24.39;42.37
33422;BME280;19763;55.798;37.782;2022-08-01T07:56:38;99808.69;;;24.08;42.53
33422;BME280;19763;55.798;37.782;2022-08-01T07:59:04;99839.78;;;24.28;42.18
33422;BME280;19763;55.798;37.782;2022-08-01T08:01:29;99847.94;;;24.37;42.62
33422;BME280;19763;55.798;37.782;2022-08-01T08:03:55;99843.16;;;24.42;41.30
33422;BME280;19763;55.798;37.782;2022-08-01T08:06:21;99846.09;;;24.61;41.85
33422;BME280;19763;55.798;37.782;2022-08-01T08:08:47;99838.22;;;24.37;41.55
33422;BME280;19763;55.798;37.782;2022-08-01T08:11:12;99832.47;;;24.55;41.61
33422;BME280;19763;55.798;37.782;2022-08-01T08:13:38;99838.81;;;24.52;41.52
33422;BME280;19763;55.798;37.782;2022-08-01T08:16:04;99830.31;;;24.49;40.64
33422;BME280;19763;55.798;37.782;2022-08-01T08:18:29;99837.19;;;24.74;43.08
33422;BME280;19763;55.798;37.782;2022-08-01T08:20:55;99839.59;;;24.77;41.62
33422;BME280;19763;55.798;37.782;2022-08-01T08:23:21;99834.53;;;24.85;41.27
33422;BME280;19763;55.798;37.782;2022-08-01T08:26:05;99834.53;;;24.85;42.19
33422;BME280;19763;55.798;37.782;2022-08-01T08:28:31;99833.22;;;24.68;40.47
33422;BME280;19763;55.798;37.782;2022-08-01T08:30:56;99835.75;;;24.81;41.74
33422;BME280;19763;55.798;37.782;2022-08-01T08:33:22;99830.31;;;24.94;41.73
33422;BME280;19763;55.798;37.782;2022-08-01T08:35:48;99826.72;;;24.84;41.21
33422;BME280;19763;55.798;37.782;2022-08-01T08:38:13;99835.03;;;24.90;40.32
33422;BME280;19763;55.798;37.782;2022-08-01T08:40:39;99837.78;;;25.11;40.31
33422;BME280;19763;55.798;37.782;2022-08-01T08:43:05;99838.47;;;25.25;40.78
33422;BME280;19763;55.798;37.782;2022-08-01T08:45:31;99834.00;;;25.37;39.86
33422;BME280;19763;55.798;37.782;2022-08-01T08:47:57;99824.13;;;25.39;40.22
33422;BME280;19763;55.798;37.782;2022-08-01T08:50:25;99781.75;;;25.16;39.03
33422;BME280;19763;55.798;37.782;2022-08-01T08:52:52;99827.91;;;25.02;38.81
33422;BME280;19763;55.798;37.782;2022-08-01T08:55:20;99818.56;;;25.30;39.35
33422;BME280;19763;55.798;37.782;2022-08-01T08:57:46;99826.50;;;25.53;39.32
33422;BME280;19763;55.798;37.782;2022-08-01T09:00:13;99826.25;;;25.56;38.73
33422;BME280;19763;55.798;37.782;2022-08-01T09:02:44;99819.63;;;25.83;38.96
33422;BME280;19763;55.798;37.782;2022-08-01T09:05:10;99819.38;;;25.86;37.94
33422;BME280;19763;55.798;37.782;2022-08-01T09:07:37;99816.41;;;25.68;36.06
33422;BME280;19763;55.798;37.782;2022-08-01T09:10:03;99812.84;;;25.58;37.94
33422;BME280;19763;55.798;37.782;2022-08-01T09:12:29;99816.22;;;25.60;37.58
33422;BME280;19763;55.798;37.782;2022-08-01T09:14:54;99816.72;;;25.54;37.46
33422;BME280;19763;55.798;37.782;2022-08-01T09:17:20;99822.88;;;25.54;38.08
33422;BME280;19763;55.798;37.782;2022-08-01T09:19:49;99818.34;;;25.33;38.06
33422;BME280;19763;55.798;37.782;2022-08-01T09:22:19;99768.22;;;25.19;38.11
33422;BME280;19763;55.798;37.782;2022-08-01T09:25:05;99813.78;;;25.36;37.84
33422;BME280;19763;55.798;37.782;2022-08-01T09:27:31;99810.88;;;25.39;38.14
33422;BME280;19763;55.798;37.782;2022-08-01T09:30:09;99770.00;;;25.41;38.57
33422;BME280;19763;55.798;37.782;2022-08-01T09:32:36;99809.19;;;25.26;38.04
33422;BME280;19763;55.798;37.782;2022-08-01T09:37:49;99814.75;;;25.35;36.33
33422;BME280;19763;55.798;37.782;2022-08-01T09:40:15;99811.13;;;25.24;36.66
33422;BME280;19763;55.798;37.782;2022-08-01T09:42:41;99810.88;;;25.27;36.95
33422;BME280;19763;55.798;37.782;2022-08-01T09:45:07;99808.81;;;25.20;37.62
33422;BME280;19763;55.798;37.782;2022-08-01T09:47:39;99808.00;;;25.19;37.02
33422;BME280;19763;55.798;37.782;2022-08-01T09:50:05;99807.97;;;25.42;38.01
33422;BME280;19763;55.798;37.782;2022-08-01T09:52:31;99792.31;;;25.39;35.61
33422;BME280;19763;55.798;37.782;2022-08-01T09:55:04;99797.44;;;25.52;36.54
33422;BME280;19763;55.798;37.782;2022-08-01T09:57:30;99790.31;;;25.52;35.99
33422;BME280;19763;55.798;37.782;2022-08-01T09:59:59;99749.09;;;25.48;35.83
33422;BME280;19763;55.798;37.782;2022-08-01T10:04:56;99780.84;;;25.71;35.84
33422;BME280;19763;55.798;37.782;2022-08-01T10:07:21;99785.38;;;25.80;37.07
33422;BME280;19763;55.798;37.782;2022-08-01T10:09:48;99786.03;;;25.93;36.84
33422;BME280;19763;55.798;37.782;2022-08-01T10:12:17;99763.97;;;25.93;37.89
33422;BME280;19763;55.798;37.782;2022-08-01T10:14:45;99790.34;;;26.06;36.75
33422;BME280;19763;55.798;37.782;2022-08-01T10:17:13;99773.28;;;25.87;36.34
33422;BME280;19763;55.798;37.782;2022-08-01T10:19:40;99783.53;;;26.13;36.96
33422;BME280;19763;55.798;37.782;2022-08-01T10:22:11;99795.84;;;26.14;37.08
33422;BME280;19763;55.798;37.782;2022-08-01T10:24:46;99729.06;;;25.97;36.88
33422;BME280;19763;55.798;37.782;2022-08-01T10:27:15;99745.09;;;26.07;37.22
33422;BME280;19763;55.798;37.782;2022-08-01T10:32:12;99783.19;;;26.27;36.51
33422;BME280;19763;55.798;37.782;2022-08-01T10:34:39;99776.59;;;26.00;35.77
33422;BME280;19763;55.798;37.782;2022-08-01T10:37:05;99771.91;;;25.72;35.88
33422;BME280;19763;55.798;37.782;2022-08-01T10:39:33;99781.91;;;26.00;36.84
33422;BME280;19763;55.798;37.782;2022-08-01T10:41:59;99777.13;;;26.15;36.78
33422;BME280;19763;55.798;37.782;2022-08-01T10:44:27;99743.56;;;25.93;37.02
33422;BME280;19763;55.798;37.782;2022-08-01T10:47:09;99744.16;;;25.76;35.92
33422;BME280;19763;55.798;37.782;2022-08-01T10:49:55;99774.41;;;26.06;37.38
33422;BME280;19763;55.798;37.782;2022-08-01T10:52:23;99777.91;;;26.06;37.96
33422;BME280;19763;55.798;37.782;2022-08-01T10:55:02;99735.28;;;25.87;37.38
33422;BME280;19763;55.798;37.782;2022-08-01T10:57:45;99769.09;;;26.06;38.31
33422;BME280;19763;55.798;37.782;2022-08-01T11:00:19;99766.19;;;26.09;38.09
33422;BME280;19763;55.798;37.782;2022-08-01T11:02:58;99773.47;;;26.16;37.47
33422;BME280;19763;55.798;37.782;2022-08-01T11:05:26;99767.78;;;25.79;36.32
33422;BME280;19763;55.798;37.782;2022-08-01T11:07:53;99769.72;;;25.98;38.00
33422;BME280;19763;55.798;37.782;2022-08-01T11:10:40;99767.06;;;25.98;36.57
33422;BME280;19763;55.798;37.782;2022-08-01T11:13:06;99766.19;;;26.09;36.63
33422;BME280;19763;55.798;37.782;2022-08-01T11:15:40;99760.88;;;26.09;36.91
33422;BME280;19763;55.798;37.782;2022-08-01T11:20:59;99746.44;;;26.01;36.65
33422;BME280;19763;55.798;37.782;2022-08-01T11:23:26;99718.97;;;25.91;36.23
33422;BME280;19763;55.798;37.782;2022-08-01T11:28:23;99750.63;;;25.83;36.72
33422;BME280;19763;55.798;37.782;2022-08-01T11:30:51;99717.38;;;25.79;36.79
33422;BME280;19763;55.798;37.782;2022-08-01T11:33:19;99705.06;;;25.57;36.10
33422;BME280;19763;55.798;37.782;2022-08-01T11:38:36;99742.41;;;25.65;37.04
33422;BME280;19763;55.798;37.782;2022-08-01T11:41:15;99749.56;;;25.53;36.30
33422;BME280;19763;55.798;37.782;2022-08-01T11:46:59;99736.09;;;25.45;36.98
33422;BME280;19763;55.798;37.782;2022-08-01T11:49:42;99737.47;;;25.60;36.74
33422;BME280;19763;55.798;37.782;2022-08-01T11:52:38;99743.97;;;25.67;36.53
33422;BME280;19763;55.798;37.782;2022-08-01T11:55:08;99729.88;;;25.88;37.04
33422;BME280;19763;55.798;37.782;2022-08-01T11:57:34;99737.69;;;25.90;37.17
33422;BME280;19763;55.798;37.782;2022-08-01T12:00:12;99694.44;;;25.57;37.02
33422;BME280;19763;55.798;37.782;2022-08-01T12:02:38;99741.16;;;25.69;37.36
33422;BME280;19763;55.798;37.782;2022-08-01T12:07:35;99689.97;;;25.04;35.81
33422;BME280;19763;55.798;37.782;2022-08-01T12:10:06;99682.84;;;25.15;36.91
33422;BME280;19763;55.798;37.782;2022-08-01T12:12:33;99723.63;;;25.36;36.73
33422;BME280;19763;55.798;37.782;2022-08-01T12:15:01;99707.84;;;25.34;37.33
33422;BME280;19763;55.798;37.782;2022-08-01T12:17:39;99685.13;;;25.09;37.11
33422;BME280;19763;55.798;37.782;2022-08-01T12:20:07;99724.78;;;25.43;37.34
33422;BME280;19763;55.798;37.782;2022-08-01T12:22:33;99721.41;;;25.41;37.89
33422;BME280;19763;55.798;37.782;2022-08-01T12:25:10;99724.59;;;25.35;36.19
33422;BME280;19763;55.798;37.782;2022-08-01T12:27:37;99718.19;;;25.37;36.74
33422;BME280;19763;55.798;37.782;2022-08-01T12:30:11;99725.75;;;25.42;36.68
33422;BME280;19763;55.798;37.782;2022-08-01T12:32:39;99710.69;;;25.42;36.95
33422;BME280;19763;55.798;37.782;2022-08-01T12:35:16;99724.44;;;25.69;36.74
33422;BME280;19763;55.798;37.782;2022-08-01T12:37:47;99683.84;;;25.57;37.92
33422;BME280;19763;55.798;37.782;2022-08-01T12:40:15;99711.34;;;25.77;36.34
33422;BME280;19763;55.798;37.782;2022-08-01T12:42:43;99710.56;;;25.86;35.77
33422;BME280;19763;55.798;37.782;2022-08-01T12:45:13;99674.72;;;25.71;36.42
33422;BME280;19763;55.798;37.782;2022-08-01T12:47:40;99713.75;;;26.01;36.80
33422;BME280;19763;55.798;37.782;2022-08-01T12:50:11;99715.44;;;26.02;37.14
33422;BME280;19763;55.798;37.782;2022-08-01T12:52:37;99709.28;;;26.01;37.71
33422;BME280;19763;55.798;37.782;2022-08-01T12:55:09;99674.22;;;25.77;37.43
33422;BME280;19763;55.798;37.782;2022-08-01T12:57:38;99664.91;;;25.61;35.33
33422;BME280;19763;55.798;37.782;2022-08-01T13:00:23;99702.06;;;25.92;36.70
33422;BME280;19763;55.798;37.782;2022-08-01T13:03:00;99702.53;;;25.97;36.39
33422;BME280;19763;55.798;37.782;2022-08-01T13:05:26;99697.75;;;25.91;35.77
33422;BME280;19763;55.798;37.782;2022-08-01T13:07:52;99688.56;;;25.95;37.17
33422;BME280;19763;55.798;37.782;2022-08-01T13:10:29;99654.09;;;25.74;35.79
33422;BME280;19763;55.798;37.782;2022-08-01T13:12:58;99685.31;;;25.92;36.01
33422;BME280;19763;55.798;37.782;2022-08-01T13:15:33;99683.19;;;26.07;36.16
33422;BME280;19763;55.798;37.782;2022-08-01T13:18:12;99637.34;;;25.83;35.61
33422;BME280;19763;55.798;37.782;2022-08-01T13:20:46;99684.59;;;26.11;35.93
33422;BME280;19763;55.798;37.782;2022-08-01T13:23:14;99685.84;;;26.07;36.20
33422;BME280;19763;55.798;37.782;2022-08-01T13:25:54;99677.88;;;25.86;36.04
33422;BME280;19763;55.798;37.782;2022-08-01T13:28:25;99681.00;;;25.70;36.45